sensor_id;sensor_type;location;lat;lon;timestamp;P1;durP1;ratioP1;P2;durP2;ratioP2
69319;SDS011;56467;53.502;49.248;2022-11-20T00:01:08;3.40;;;2.80;;
69319;SDS011;56467;53.502;49.248;2022-11-20T00:03:39;3.10;;;2.63;;
69319;SDS011;56467;53.502;49.248;2022-11-20T00:06:06;3.17;;;2.55;;
69319;SDS011;56467;53.502;49.248;2022-11-20T00:08:34;3.55;;;2.55;;
69319;SDS011;56467;53.502;49.248;2022-11-20T00:11:04;2.97;;;2.45;;
69319;SDS011;56467;53.502;49.248;2022-11-20T00:13:32;3.25;;;2.65;;
69319;SDS011;56467;53.502;49.248;2022-11-20T00:15:58;2.90;;;2.60;;
69319;SDS011;56467;53.502;49.248;2022-11-20T00:18:26;3.50;;;2.55;;
69319;SDS011;56467;53.502;49.248;2022-11-20T00:20:52;3.20;;;2.40;;
69319;SDS011;56467;53.502;49.248;2022-11-20T00:23:19;3.00;;;2.50;;
69319;SDS011;56467;53.502;49.248;2022-11-20T00:25:45;3.05;;;2.58;;
69319;SDS011;56467;53.502;49.248;2022-11-20T00:28:11;3.13;;;2.40;;
69319;SDS011;56467;53.502;49.248;2022-11-20T00:30:37;3.00;;;2.40;;
69319;SDS011;56467;53.502;49.248;2022-11-20T00:33:02;3.58;;;2.55;;
69319;SDS011;56467;53.502;49.248;2022-11-20T00:35:28;2.75;;;2.40;;
69319;SDS011;56467;53.502;49.248;2022-11-20T00:37:54;3.13;;;2.50;;
69319;SDS011;56467;53.502;49.248;2022-11-20T00:40:20;3.17;;;2.40;;
69319;SDS011;56467;53.502;49.248;2022-11-20T00:42:46;3.15;;;2.50;;
69319;SDS011;56467;53.502;49.248;2022-11-20T00:45:12;3.10;;;2.45;;
69319;SDS011;56467;53.502;49.248;2022-11-20T00:47:37;3.05;;;2.30;;
69319;SDS011;56467;53.502;49.248;2022-11-20T00:50:03;2.67;;;2.35;;
69319;SDS011;56467;53.502;49.248;2022-11-20T00:52:29;2.70;;;2.30;;
69319;SDS011;56467;53.502;49.248;2022-11-20T00:54:55;3.00;;;2.50;;
69319;SDS011;56467;53.502;49.248;2022-11-20T00:57:21;2.97;;;2.40;;
69319;SDS011;56467;53.502;49.248;2022-11-20T00:59:47;2.58;;;2.20;;
69319;SDS011;56467;53.502;49.248;2022-11-20T01:02:12;2.45;;;2.22;;
69319;SDS011;56467;53.502;49.248;2022-11-20T01:04:40;2.85;;;2.47;;
69319;SDS011;56467;53.502;49.248;2022-11-20T01:07:06;2.92;;;2.47;;
69319;SDS011;56467;53.502;49.248;2022-11-20T01:09:32;3.88;;;2.22;;
69319;SDS011;56467;53.502;49.248;2022-11-20T01:11:57;2.85;;;2.28;;
69319;SDS011;56467;53.502;49.248;2022-11-20T01:14:24;2.65;;;2.25;;
69319;SDS011;56467;53.502;49.248;2022-11-20T01:16:50;2.38;;;2.17;;
69319;SDS011;56467;53.502;49.248;2022-11-20T01:19:18;3.35;;;2.50;;
69319;SDS011;56467;53.502;49.248;2022-11-20T01:21:48;2.60;;;2.20;;
69319;SDS011;56467;53.502;49.248;2022-11-20T01:24:17;2.47;;;2.28;;
69319;SDS011;56467;53.502;49.248;2022-11-20T01:26:45;2.42;;;2.10;;
69319;SDS011;56467;53.502;49.248;2022-11-20T01:29:13;3.22;;;2.33;;
69319;SDS011;56467;53.502;49.248;2022-11-20T01:31:41;2.50;;;2.28;;
69319;SDS011;56467;53.502;49.248;2022-11-20T01:34:12;2.45;;;2.08;;
69319;SDS011;56467;53.502;49.248;2022-11-20T01:36:40;2.50;;;2.20;;
69319;SDS011;56467;53.502;49.248;2022-11-20T01:39:14;2.80;;;2.17;;
69319;SDS011;56467;53.502;49.248;2022-11-20T01:41:41;2.30;;;2.10;;
69319;SDS011;56467;53.502;49.248;2022-11-20T01:47:27;3.13;;;2.20;;
69319;SDS011;56467;53.502;49.248;2022-11-20T01:50:04;2.55;;;2.00;;
69319;SDS011;56467;53.502;49.248;2022-11-20T01:52:50;2.45;;;2.20;;
69319;SDS011;56467;53.502;49.248;2022-11-20T01:55:21;2.70;;;2.35;;
69319;SDS011;56467;53.502;49.248;2022-11-20T01:57:51;3.03;;;2.13;;
69319;SDS011;56467;53.502;49.248;2022-11-20T02:00:18;2.60;;;2.30;;
69319;SDS011;56467;53.502;49.248;2022-11-20T02:02:49;2.80;;;2.30;;
69319;SDS011;56467;53.502;49.248;2022-11-20T02:05:35;2.45;;;2.10;;
69319;SDS011;56467;53.502;49.248;2022-11-20T02:08:09;2.70;;;2.30;;
69319;SDS011;56467;53.502;49.248;2022-11-20T02:10:35;2.53;;;2.00;;
69319;SDS011;56467;53.502;49.248;2022-11-20T02:13:01;2.22;;;2.03;;
69319;SDS011;56467;53.502;49.248;2022-11-20T02:15:46;2.13;;;1.92;;
69319;SDS011;56467;53.502;49.248;2022-11-20T02:18:13;3.47;;;2.15;;
69319;SDS011;56467;53.502;49.248;2022-11-20T02:20:42;3.83;;;2.20;;
69319;SDS011;56467;53.502;49.248;2022-11-20T02:23:17;2.55;;;2.20;;
69319;SDS011;56467;53.502;49.248;2022-11-20T02:25:57;2.65;;;2.00;;
69319;SDS011;56467;53.502;49.248;2022-11-20T02:28:26;2.53;;;2.10;;
69319;SDS011;56467;53.502;49.248;2022-11-20T02:30:52;3.97;;;2.30;;
69319;SDS011;56467;53.502;49.248;2022-11-20T02:33:18;2.25;;;2.05;;
69319;SDS011;56467;53.502;49.248;2022-11-20T02:35:44;2.40;;;1.90;;
69319;SDS011;56467;53.502;49.248;2022-11-20T02:38:11;2.90;;;2.33;;
69319;SDS011;56467;53.502;49.248;2022-11-20T02:40:38;2.67;;;2.30;;
69319;SDS011;56467;53.502;49.248;2022-11-20T02:43:03;2.47;;;2.13;;
69319;SDS011;56467;53.502;49.248;2022-11-20T02:45:29;2.65;;;1.90;;
69319;SDS011;56467;53.502;49.248;2022-11-20T02:47:55;2.75;;;2.08;;
69319;SDS011;56467;53.502;49.248;2022-11-20T02:50:21;2.53;;;2.22;;
69319;SDS011;56467;53.502;49.248;2022-11-20T02:52:46;2.50;;;2.00;;
69319;SDS011;56467;53.502;49.248;2022-11-20T02:55:12;2.28;;;2.05;;
69319;SDS011;56467;53.502;49.248;2022-11-20T02:57:38;2.70;;;2.10;;
69319;SDS011;56467;53.502;49.248;2022-11-20T03:00:04;2.30;;;2.10;;
69319;SDS011;56467;53.502;49.248;2022-11-20T03:02:31;2.28;;;1.90;;
69319;SDS011;56467;53.502;49.248;2022-11-20T03:04:57;2.10;;;1.90;;
69319;SDS011;56467;53.502;49.248;2022-11-20T03:07:23;2.10;;;1.90;;
69319;SDS011;56467;53.502;49.248;2022-11-20T03:09:49;2.25;;;2.00;;
69319;SDS011;56467;53.502;49.248;2022-11-20T03:12:15;2.67;;;2.28;;
69319;SDS011;56467;53.502;49.248;2022-11-20T03:14:40;2.05;;;1.83;;
69319;SDS011;56467;53.502;49.248;2022-11-20T03:17:06;2.17;;;1.98;;
69319;SDS011;56467;53.502;49.248;2022-11-20T03:19:32;2.58;;;2.33;;
69319;SDS011;56467;53.502;49.248;2022-11-20T03:21:59;2.10;;;1.90;;
69319;SDS011;56467;53.502;49.248;2022-11-20T03:24:25;2.15;;;1.80;;
69319;SDS011;56467;53.502;49.248;2022-11-20T03:26:51;2.20;;;1.95;;
69319;SDS011;56467;53.502;49.248;2022-11-20T03:29:17;2.38;;;2.00;;
69319;SDS011;56467;53.502;49.248;2022-11-20T03:31:42;2.50;;;2.08;;
69319;SDS011;56467;53.502;49.248;2022-11-20T03:34:09;1.85;;;1.75;;
69319;SDS011;56467;53.502;49.248;2022-11-20T03:36:37;2.45;;;2.08;;
69319;SDS011;56467;53.502;49.248;2022-11-20T03:39:07;3.13;;;1.90;;
69319;SDS011;56467;53.502;49.248;2022-11-20T03:41:37;1.95;;;1.70;;
69319;SDS011;56467;53.502;49.248;2022-11-20T03:44:05;2.05;;;1.85;;
69319;SDS011;56467;53.502;49.248;2022-11-20T03:46:32;2.20;;;1.90;;
69319;SDS011;56467;53.502;49.248;2022-11-20T03:48:58;2.17;;;1.90;;
69319;SDS011;56467;53.502;49.248;2022-11-20T03:51:26;2.40;;;2.10;;
69319;SDS011;56467;53.502;49.248;2022-11-20T03:53:57;2.20;;;2.00;;
69319;SDS011;56467;53.502;49.248;2022-11-20T03:56:25;2.97;;;2.20;;
69319;SDS011;56467;53.502;49.248;2022-11-20T03:58:53;2.53;;;2.00;;
69319;SDS011;56467;53.502;49.248;2022-11-20T04:01:20;2.38;;;2.03;;
69319;SDS011;56467;53.502;49.248;2022-11-20T04:03:48;2.28;;;2.00;;
69319;SDS011;56467;53.502;49.248;2022-11-20T04:06:18;2.78;;;1.90;;
69319;SDS011;56467;53.502;49.248;2022-11-20T04:08:55;2.25;;;1.90;;
69319;SDS011;56467;53.502;49.248;2022-11-20T04:11:23;2.55;;;1.80;;
69319;SDS011;56467;53.502;49.248;2022-11-20T04:13:55;2.40;;;1.90;;
69319;SDS011;56467;53.502;49.248;2022-11-20T04:16:23;2.15;;;1.90;;
69319;SDS011;56467;53.502;49.248;2022-11-20T04:18:53;2.05;;;1.85;;
69319;SDS011;56467;53.502;49.248;2022-11-20T04:21:21;2.58;;;2.10;;
69319;SDS011;56467;53.502;49.248;2022-11-20T04:23:47;2.15;;;1.85;;
69319;SDS011;56467;53.502;49.248;2022-11-20T04:26:13;1.95;;;1.80;;
69319;SDS011;56467;53.502;49.248;2022-11-20T04:28:39;2.10;;;1.90;;
69319;SDS011;56467;53.502;49.248;2022-11-20T04:31:09;2.33;;;1.83;;
69319;SDS011;56467;53.502;49.248;2022-11-20T04:33:38;2.35;;;2.10;;
69319;SDS011;56467;53.502;49.248;2022-11-20T04:36:06;2.20;;;2.00;;
69319;SDS011;56467;53.502;49.248;2022-11-20T04:38:33;2.20;;;2.00;;
69319;SDS011;56467;53.502;49.248;2022-11-20T04:41:00;2.20;;;2.00;;
69319;SDS011;56467;53.502;49.248;2022-11-20T04:43:26;2.20;;;2.00;;
69319;SDS011;56467;53.502;49.248;2022-11-20T04:45:53;2.17;;;1.83;;
69319;SDS011;56467;53.502;49.248;2022-11-20T04:48:19;2.13;;;1.80;;
69319;SDS011;56467;53.502;49.248;2022-11-20T04:50:46;2.65;;;2.00;;
69319;SDS011;56467;53.502;49.248;2022-11-20T04:53:12;2.28;;;1.90;;
69319;SDS011;56467;53.502;49.248;2022-11-20T04:55:37;2.25;;;1.80;;
69319;SDS011;56467;53.502;49.248;2022-11-20T04:58:03;1.95;;;1.80;;
69319;SDS011;56467;53.502;49.248;2022-11-20T05:00:29;2.10;;;1.70;;
69319;SDS011;56467;53.502;49.248;2022-11-20T05:02:55;2.10;;;1.90;;
69319;SDS011;56467;53.502;49.248;2022-11-20T05:05:20;1.75;;;1.63;;
69319;SDS011;56467;53.502;49.248;2022-11-20T05:07:46;2.00;;;1.80;;
69319;SDS011;56467;53.502;49.248;2022-11-20T05:10:12;2.13;;;1.92;;
69319;SDS011;56467;53.502;49.248;2022-11-20T05:12:37;2.28;;;1.88;;
69319;SDS011;56467;53.502;49.248;2022-11-20T05:15:03;2.00;;;1.80;;
69319;SDS011;56467;53.502;49.248;2022-11-20T05:17:29;2.35;;;1.98;;
69319;SDS011;56467;53.502;49.248;2022-11-20T05:19:55;2.20;;;2.00;;
69319;SDS011;56467;53.502;49.248;2022-11-20T05:22:21;2.35;;;1.90;;
69319;SDS011;56467;53.502;49.248;2022-11-20T05:24:47;2.10;;;1.80;;
69319;SDS011;56467;53.502;49.248;2022-11-20T05:27:12;2.10;;;1.90;;
69319;SDS011;56467;53.502;49.248;2022-11-20T05:29:38;2.13;;;1.80;;
69319;SDS011;56467;53.502;49.248;2022-11-20T05:32:04;2.20;;;1.98;;
69319;SDS011;56467;53.502;49.248;2022-11-20T05:34:32;1.80;;;1.63;;
69319;SDS011;56467;53.502;49.248;2022-11-20T05:36:58;2.00;;;1.90;;
69319;SDS011;56467;53.502;49.248;2022-11-20T05:39:24;2.88;;;2.10;;
69319;SDS011;56467;53.502;49.248;2022-11-20T05:41:49;2.00;;;1.80;;
69319;SDS011;56467;53.502;49.248;2022-11-20T05:44:35;2.10;;;1.90;;
69319;SDS011;56467;53.502;49.248;2022-11-20T05:47:01;2.35;;;2.00;;
69319;SDS011;56467;53.502;49.248;2022-11-20T05:49:26;1.95;;;1.80;;
69319;SDS011;56467;53.502;49.248;2022-11-20T05:51:52;2.20;;;1.90;;
69319;SDS011;56467;53.502;49.248;2022-11-20T05:54:18;2.63;;;1.70;;
69319;SDS011;56467;53.502;49.248;2022-11-20T05:56:44;2.00;;;1.80;;
69319;SDS011;56467;53.502;49.248;2022-11-20T05:59:09;2.05;;;1.85;;
69319;SDS011;56467;53.502;49.248;2022-11-20T06:01:35;2.03;;;1.70;;
69319;SDS011;56467;53.502;49.248;2022-11-20T06:04:01;1.90;;;1.70;;
69319;SDS011;56467;53.502;49.248;2022-11-20T06:06:27;2.10;;;1.90;;
69319;SDS011;56467;53.502;49.248;2022-11-20T06:08:53;2.95;;;2.08;;
69319;SDS011;56467;53.502;49.248;2022-11-20T06:11:20;1.73;;;1.60;;
69319;SDS011;56467;53.502;49.248;2022-11-20T06:13:46;2.13;;;1.88;;
69319;SDS011;56467;53.502;49.248;2022-11-20T06:16:14;2.10;;;1.90;;
69319;SDS011;56467;53.502;49.248;2022-11-20T06:18:42;2.53;;;1.80;;
69319;SDS011;56467;53.502;49.248;2022-11-20T06:21:14;2.00;;;1.80;;
69319;SDS011;56467;53.502;49.248;2022-11-20T06:23:44;2.05;;;1.80;;
69319;SDS011;56467;53.502;49.248;2022-11-20T06:26:14;1.77;;;1.65;;
69319;SDS011;56467;53.502;49.248;2022-11-20T06:28:58;2.20;;;2.00;;
69319;SDS011;56467;53.502;49.248;2022-11-20T06:31:25;1.85;;;1.70;;
69319;SDS011;56467;53.502;49.248;2022-11-20T06:33:51;2.58;;;1.90;;
69319;SDS011;56467;53.502;49.248;2022-11-20T06:36:19;2.55;;;1.90;;
69319;SDS011;56467;53.502;49.248;2022-11-20T06:38:46;2.28;;;1.80;;
69319;SDS011;56467;53.502;49.248;2022-11-20T06:41:16;2.03;;;1.70;;
69319;SDS011;56467;53.502;49.248;2022-11-20T06:43:44;2.25;;;1.80;;
69319;SDS011;56467;53.502;49.248;2022-11-20T06:46:10;1.70;;;1.60;;
69319;SDS011;56467;53.502;49.248;2022-11-20T06:48:37;2.10;;;1.85;;
69319;SDS011;56467;53.502;49.248;2022-11-20T06:51:04;2.25;;;1.85;;
69319;SDS011;56467;53.502;49.248;2022-11-20T06:53:30;1.88;;;1.60;;
69319;SDS011;56467;53.502;49.248;2022-11-20T06:55:57;1.83;;;1.73;;
69319;SDS011;56467;53.502;49.248;2022-11-20T06:58:23;2.00;;;1.70;;
69319;SDS011;56467;53.502;49.248;2022-11-20T07:00:51;2.50;;;1.95;;
69319;SDS011;56467;53.502;49.248;2022-11-20T07:03:17;2.40;;;1.80;;
69319;SDS011;56467;53.502;49.248;2022-11-20T07:05:42;1.70;;;1.60;;
69319;SDS011;56467;53.502;49.248;2022-11-20T07:08:10;2.03;;;1.83;;
69319;SDS011;56467;53.502;49.248;2022-11-20T07:10:36;1.90;;;1.70;;
69319;SDS011;56467;53.502;49.248;2022-11-20T07:13:02;2.05;;;1.85;;
69319;SDS011;56467;53.502;49.248;2022-11-20T07:15:28;1.70;;;1.60;;
69319;SDS011;56467;53.502;49.248;2022-11-20T07:17:53;2.00;;;1.75;;
69319;SDS011;56467;53.502;49.248;2022-11-20T07:20:19;2.00;;;1.80;;
69319;SDS011;56467;53.502;49.248;2022-11-20T07:22:45;2.05;;;1.80;;
69319;SDS011;56467;53.502;49.248;2022-11-20T07:25:11;2.28;;;1.80;;
69319;SDS011;56467;53.502;49.248;2022-11-20T07:27:36;2.13;;;1.70;;
69319;SDS011;56467;53.502;49.248;2022-11-20T07:30:02;1.85;;;1.60;;
69319;SDS011;56467;53.502;49.248;2022-11-20T07:32:29;2.33;;;1.80;;
69319;SDS011;56467;53.502;49.248;2022-11-20T07:34:54;2.10;;;1.83;;
69319;SDS011;56467;53.502;49.248;2022-11-20T07:37:20;2.38;;;1.80;;
69319;SDS011;56467;53.502;49.248;2022-11-20T07:39:46;1.95;;;1.70;;
69319;SDS011;56467;53.502;49.248;2022-11-20T07:42:12;2.15;;;1.90;;
69319;SDS011;56467;53.502;49.248;2022-11-20T07:44:38;1.80;;;1.60;;
69319;SDS011;56467;53.502;49.248;2022-11-20T07:47:03;2.00;;;1.75;;
69319;SDS011;56467;53.502;49.248;2022-11-20T07:49:29;2.00;;;1.80;;
69319;SDS011;56467;53.502;49.248;2022-11-20T07:51:55;2.10;;;1.90;;
69319;SDS011;56467;53.502;49.248;2022-11-20T07:54:21;1.85;;;1.63;;
69319;SDS011;56467;53.502;49.248;2022-11-20T07:56:48;1.85;;;1.65;;
69319;SDS011;56467;53.502;49.248;2022-11-20T07:59:14;2.15;;;1.80;;
69319;SDS011;56467;53.502;49.248;2022-11-20T08:01:41;1.77;;;1.67;;
69319;SDS011;56467;53.502;49.248;2022-11-20T08:04:07;2.47;;;1.73;;
69319;SDS011;56467;53.502;49.248;2022-11-20T08:06:34;2.00;;;1.80;;
69319;SDS011;56467;53.502;49.248;2022-11-20T08:09:01;1.70;;;1.60;;
69319;SDS011;56467;53.502;49.248;2022-11-20T08:11:27;1.90;;;1.70;;
69319;SDS011;56467;53.502;49.248;2022-11-20T08:14:11;2.40;;;1.70;;
69319;SDS011;56467;53.502;49.248;2022-11-20T08:16:37;2.38;;;1.67;;
69319;SDS011;56467;53.502;49.248;2022-11-20T08:19:03;2.15;;;1.60;;
69319;SDS011;56467;53.502;49.248;2022-11-20T08:21:32;2.13;;;1.92;;
69319;SDS011;56467;53.502;49.248;2022-11-20T08:23:58;2.55;;;1.90;;
69319;SDS011;56467;53.502;49.248;2022-11-20T08:26:25;1.83;;;1.65;;
69319;SDS011;56467;53.502;49.248;2022-11-20T08:28:54;2.38;;;1.70;;
69319;SDS011;56467;53.502;49.248;2022-11-20T08:31:20;1.92;;;1.65;;
69319;SDS011;56467;53.502;49.248;2022-11-20T08:33:46;1.80;;;1.67;;
69319;SDS011;56467;53.502;49.248;2022-11-20T08:36:12;1.90;;;1.63;;
69319;SDS011;56467;53.502;49.248;2022-11-20T08:38:38;2.33;;;2.10;;
69319;SDS011;56467;53.502;49.248;2022-11-20T08:41:04;2.45;;;1.80;;
69319;SDS011;56467;53.502;49.248;2022-11-20T08:43:58;2.97;;;1.90;;
69319;SDS011;56467;53.502;49.248;2022-11-20T08:46:26;1.92;;;1.70;;
69319;SDS011;56467;53.502;49.248;2022-11-20T08:48:57;2.67;;;2.00;;
69319;SDS011;56467;53.502;49.248;2022-11-20T08:51:22;3.20;;;2.17;;
69319;SDS011;56467;53.502;49.248;2022-11-20T08:53:48;2.10;;;1.80;;
69319;SDS011;56467;53.502;49.248;2022-11-20T08:56:14;1.85;;;1.63;;
69319;SDS011;56467;53.502;49.248;2022-11-20T08:58:40;1.95;;;1.80;;
69319;SDS011;56467;53.502;49.248;2022-11-20T09:01:06;2.25;;;1.90;;
69319;SDS011;56467;53.502;49.248;2022-11-20T09:03:32;2.35;;;1.80;;
69319;SDS011;56467;53.502;49.248;2022-11-20T09:06:01;2.17;;;1.67;;
69319;SDS011;56467;53.502;49.248;2022-11-20T09:08:29;2.00;;;1.80;;
69319;SDS011;56467;53.502;49.248;2022-11-20T09:10:56;2.10;;;1.90;;
69319;SDS011;56467;53.502;49.248;2022-11-20T09:13:23;2.15;;;1.80;;
69319;SDS011;56467;53.502;49.248;2022-11-20T09:15:56;1.98;;;1.70;;
69319;SDS011;56467;53.502;49.248;2022-11-20T09:18:27;2.38;;;1.83;;
69319;SDS011;56467;53.502;49.248;2022-11-20T09:20:56;2.00;;;1.80;;
69319;SDS011;56467;53.502;49.248;2022-11-20T09:23:25;2.33;;;1.70;;
69319;SDS011;56467;53.502;49.248;2022-11-20T09:25:51;1.90;;;1.50;;
69319;SDS011;56467;53.502;49.248;2022-11-20T09:28:18;2.00;;;1.75;;
69319;SDS011;56467;53.502;49.248;2022-11-20T09:30:44;2.20;;;1.70;;
69319;SDS011;56467;53.502;49.248;2022-11-20T09:33:10;2.15;;;1.92;;
69319;SDS011;56467;53.502;49.248;2022-11-20T09:35:35;1.70;;;1.60;;
69319;SDS011;56467;53.502;49.248;2022-11-20T09:38:05;2.13;;;1.63;;
69319;SDS011;56467;53.502;49.248;2022-11-20T09:40:31;2.40;;;1.70;;
69319;SDS011;56467;53.502;49.248;2022-11-20T09:43:18;2.42;;;1.90;;
69319;SDS011;56467;53.502;49.248;2022-11-20T09:56:46;1.98;;;1.80;;
69319;SDS011;56467;53.502;49.248;2022-11-20T10:07:30;1.77;;;1.67;;
69319;SDS011;56467;53.502;49.248;2022-11-20T10:10:04;2.10;;;1.85;;
69319;SDS011;56467;53.502;49.248;2022-11-20T10:24:05;2.25;;;2.00;;
69319;SDS011;56467;53.502;49.248;2022-11-20T10:29:32;2.55;;;1.90;;
69319;SDS011;56467;53.502;49.248;2022-11-20T10:32:14;2.05;;;1.85;;
69319;SDS011;56467;53.502;49.248;2022-11-20T10:37:27;2.13;;;1.90;;
69319;SDS011;56467;53.502;49.248;2022-11-20T10:42:56;1.70;;;1.60;;
69319;SDS011;56467;53.502;49.248;2022-11-20T10:47:54;2.28;;;1.70;;
69319;SDS011;56467;53.502;49.248;2022-11-20T10:50:33;2.03;;;1.83;;
69319;SDS011;56467;53.502;49.248;2022-11-20T10:53:16;2.10;;;1.90;;
69319;SDS011;56467;53.502;49.248;2022-11-20T10:56:05;2.53;;;2.10;;
69319;SDS011;56467;53.502;49.248;2022-11-20T11:01:39;2.05;;;1.80;;
69319;SDS011;56467;53.502;49.248;2022-11-20T11:04:15;2.40;;;1.80;;
69319;SDS011;56467;53.502;49.248;2022-11-20T11:07:07;1.83;;;1.63;;
69319;SDS011;56467;53.502;49.248;2022-11-20T11:09:44;2.25;;;1.98;;
69319;SDS011;56467;53.502;49.248;2022-11-20T11:12:14;2.63;;;2.10;;
69319;SDS011;56467;53.502;49.248;2022-11-20T11:14:43;2.00;;;1.80;;
69319;SDS011;56467;53.502;49.248;2022-11-20T11:22:42;2.53;;;1.80;;
69319;SDS011;56467;53.502;49.248;2022-11-20T11:25:29;2.25;;;2.00;;
69319;SDS011;56467;53.502;49.248;2022-11-20T11:28:03;2.50;;;2.08;;
69319;SDS011;56467;53.502;49.248;2022-11-20T11:30:44;2.20;;;2.00;;
69319;SDS011;56467;53.502;49.248;2022-11-20T11:35:51;2.42;;;2.00;;
69319;SDS011;56467;53.502;49.248;2022-11-20T11:38:32;2.50;;;1.77;;
69319;SDS011;56467;53.502;49.248;2022-11-20T11:41:01;2.30;;;1.75;;
69319;SDS011;56467;53.502;49.248;2022-11-20T11:43:29;2.10;;;1.90;;
69319;SDS011;56467;53.502;49.248;2022-11-20T11:51:59;2.28;;;2.00;;
69319;SDS011;56467;53.502;49.248;2022-11-20T12:02:25;2.15;;;1.95;;
69319;SDS011;56467;53.502;49.248;2022-11-20T12:08:05;2.00;;;1.80;;
69319;SDS011;56467;53.502;49.248;2022-11-20T12:13:39;2.38;;;1.80;;
69319;SDS011;56467;53.502;49.248;2022-11-20T12:16:12;2.65;;;2.00;;
69319;SDS011;56467;53.502;49.248;2022-11-20T12:18:40;1.95;;;1.65;;
69319;SDS011;56467;53.502;49.248;2022-11-20T12:26:55;2.20;;;1.95;;
69319;SDS011;56467;53.502;49.248;2022-11-20T12:29:43;1.83;;;1.70;;
69319;SDS011;56467;53.502;49.248;2022-11-20T12:40:57;2.42;;;1.83;;
69319;SDS011;56467;53.502;49.248;2022-11-20T12:43:47;2.55;;;2.00;;
69319;SDS011;56467;53.502;49.248;2022-11-20T12:51:57;2.03;;;1.80;;
69319;SDS011;56467;53.502;49.248;2022-11-20T13:00:06;2.30;;;2.00;;
69319;SDS011;56467;53.502;49.248;2022-11-20T13:06:10;2.90;;;2.10;;
69319;SDS011;56467;53.502;49.248;2022-11-20T13:08:40;2.30;;;2.00;;
69319;SDS011;56467;53.502;49.248;2022-11-20T13:11:12;2.30;;;1.92;;
69319;SDS011;56467;53.502;49.248;2022-11-20T13:19:16;2.60;;;1.95;;
69319;SDS011;56467;53.502;49.248;2022-11-20T13:21:44;3.20;;;2.17;;
69319;SDS011;56467;53.502;49.248;2022-11-20T13:29:33;2.20;;;1.85;;
69319;SDS011;56467;53.502;49.248;2022-11-20T13:32:02;2.67;;;2.17;;
69319;SDS011;56467;53.502;49.248;2022-11-20T13:34:32;2.20;;;2.00;;
69319;SDS011;56467;53.502;49.248;2022-11-20T13:36:59;2.53;;;2.10;;
69319;SDS011;56467;53.502;49.248;2022-11-20T13:39:35;2.28;;;2.00;;
69319;SDS011;56467;53.502;49.248;2022-11-20T13:42:02;2.60;;;2.10;;
69319;SDS011;56467;53.502;49.248;2022-11-20T13:44:38;2.70;;;1.98;;
69319;SDS011;56467;53.502;49.248;2022-11-20T13:47:25;2.75;;;2.00;;
69319;SDS011;56467;53.502;49.248;2022-11-20T13:49:53;2.10;;;1.90;;
69319;SDS011;56467;53.502;49.248;2022-11-20T13:55:11;2.17;;;1.83;;
69319;SDS011;56467;53.502;49.248;2022-11-20T14:00:30;2.28;;;1.98;;
69319;SDS011;56467;53.502;49.248;2022-11-20T14:05:36;3.75;;;1.98;;
69319;SDS011;56467;53.502;49.248;2022-11-20T14:08:04;2.30;;;2.05;;
69319;SDS011;56467;53.502;49.248;2022-11-20T14:10:37;2.22;;;2.03;;
69319;SDS011;56467;53.502;49.248;2022-11-20T14:13:19;2.55;;;2.10;;
69319;SDS011;56467;53.502;49.248;2022-11-20T14:15:46;2.55;;;2.05;;
69319;SDS011;56467;53.502;49.248;2022-11-20T14:18:21;2.33;;;1.90;;
69319;SDS011;56467;53.502;49.248;2022-11-20T14:20:47;2.85;;;2.20;;
69319;SDS011;56467;53.502;49.248;2022-11-20T14:23:22;2.58;;;2.20;;
69319;SDS011;56467;53.502;49.248;2022-11-20T14:25:49;2.83;;;2.00;;
69319;SDS011;56467;53.502;49.248;2022-11-20T14:28:20;2.92;;;2.30;;
69319;SDS011;56467;53.502;49.248;2022-11-20T14:30:52;2.92;;;2.20;;
69319;SDS011;56467;53.502;49.248;2022-11-20T14:33:19;2.33;;;2.13;;
69319;SDS011;56467;53.502;49.248;2022-11-20T14:35:53;2.63;;;2.20;;
69319;SDS011;56467;53.502;49.248;2022-11-20T14:38:23;2.60;;;2.30;;
69319;SDS011;56467;53.502;49.248;2022-11-20T14:40:53;3.15;;;2.60;;
69319;SDS011;56467;53.502;49.248;2022-11-20T14:43:21;2.65;;;2.13;;
69319;SDS011;56467;53.502;49.248;2022-11-20T14:45:52;3.00;;;2.35;;
69319;SDS011;56467;53.502;49.248;2022-11-20T14:48:46;3.00;;;2.28;;
69319;SDS011;56467;53.502;49.248;2022-11-20T14:51:36;3.05;;;2.50;;
69319;SDS011;56467;53.502;49.248;2022-11-20T14:54:10;3.25;;;2.50;;
69319;SDS011;56467;53.502;49.248;2022-11-20T14:56:57;2.97;;;2.25;;
69319;SDS011;56467;53.502;49.248;2022-11-20T14:59:27;3.28;;;2.38;;
69319;SDS011;56467;53.502;49.248;2022-11-20T15:01:59;3.38;;;2.60;;
69319;SDS011;56467;53.502;49.248;2022-11-20T15:04:24;3.50;;;2.60;;
69319;SDS011;56467;53.502;49.248;2022-11-20T15:06:52;3.28;;;2.65;;
69319;SDS011;56467;53.502;49.248;2022-11-20T15:09:20;3.22;;;2.47;;
69319;SDS011;56467;53.502;49.248;2022-11-20T15:11:52;3.03;;;2.47;;
69319;SDS011;56467;53.502;49.248;2022-11-20T15:14:28;4.63;;;2.55;;
69319;SDS011;56467;53.502;49.248;2022-11-20T15:16:55;3.22;;;2.50;;
69319;SDS011;56467;53.502;49.248;2022-11-20T15:19:22;3.85;;;3.00;;
69319;SDS011;56467;53.502;49.248;2022-11-20T15:21:49;3.78;;;2.80;;
69319;SDS011;56467;53.502;49.248;2022-11-20T15:24:16;4.68;;;2.97;;
69319;SDS011;56467;53.502;49.248;2022-11-20T15:26:42;2.95;;;2.50;;
69319;SDS011;56467;53.502;49.248;2022-11-20T15:29:12;3.95;;;2.65;;
69319;SDS011;56467;53.502;49.248;2022-11-20T15:31:43;3.80;;;2.72;;
69319;SDS011;56467;53.502;49.248;2022-11-20T15:34:13;4.32;;;2.70;;
69319;SDS011;56467;53.502;49.248;2022-11-20T15:36:40;4.30;;;2.78;;
69319;SDS011;56467;53.502;49.248;2022-11-20T15:39:07;4.00;;;2.55;;
69319;SDS011;56467;53.502;49.248;2022-11-20T15:41:34;3.75;;;2.70;;
69319;SDS011;56467;53.502;49.248;2022-11-20T15:44:00;3.55;;;2.70;;
69319;SDS011;56467;53.502;49.248;2022-11-20T15:46:27;3.90;;;3.10;;
69319;SDS011;56467;53.502;49.248;2022-11-20T15:48:54;3.85;;;2.75;;
69319;SDS011;56467;53.502;49.248;2022-11-20T15:54:00;3.65;;;2.70;;
69319;SDS011;56467;53.502;49.248;2022-11-20T15:56:28;4.32;;;2.63;;
69319;SDS011;56467;53.502;49.248;2022-11-20T15:58:54;4.25;;;2.85;;
69319;SDS011;56467;53.502;49.248;2022-11-20T16:01:21;3.80;;;2.78;;
69319;SDS011;56467;53.502;49.248;2022-11-20T16:03:47;4.32;;;2.90;;
69319;SDS011;56467;53.502;49.248;2022-11-20T16:06:13;4.15;;;3.08;;
69319;SDS011;56467;53.502;49.248;2022-11-20T16:08:41;3.47;;;2.90;;
69319;SDS011;56467;53.502;49.248;2022-11-20T16:11:09;4.18;;;2.80;;
69319;SDS011;56467;53.502;49.248;2022-11-20T16:13:40;5.30;;;3.13;;
69319;SDS011;56467;53.502;49.248;2022-11-20T16:16:26;4.20;;;2.75;;
69319;SDS011;56467;53.502;49.248;2022-11-20T16:18:55;3.88;;;2.95;;
69319;SDS011;56467;53.502;49.248;2022-11-20T16:21:21;3.47;;;2.83;;
69319;SDS011;56467;53.502;49.248;2022-11-20T16:23:56;4.35;;;3.00;;
69319;SDS011;56467;53.502;49.248;2022-11-20T16:26:26;3.75;;;2.88;;
69319;SDS011;56467;53.502;49.248;2022-11-20T16:28:52;3.90;;;2.92;;
69319;SDS011;56467;53.502;49.248;2022-11-20T16:31:19;4.30;;;3.17;;
69319;SDS011;56467;53.502;49.248;2022-11-20T16:33:49;3.58;;;2.80;;
69319;SDS011;56467;53.502;49.248;2022-11-20T16:36:16;3.47;;;2.80;;
69319;SDS011;56467;53.502;49.248;2022-11-20T16:38:42;3.63;;;2.88;;
69319;SDS011;56467;53.502;49.248;2022-11-20T16:41:08;3.67;;;3.03;;
69319;SDS011;56467;53.502;49.248;2022-11-20T16:46:31;4.15;;;2.75;;
69319;SDS011;56467;53.502;49.248;2022-11-20T16:51:25;3.40;;;2.90;;
69319;SDS011;56467;53.502;49.248;2022-11-20T16:53:54;4.72;;;3.30;;
69319;SDS011;56467;53.502;49.248;2022-11-20T16:56:22;3.90;;;3.00;;